createdAt,value
2023-04-05T00:01:12.563Z,52.06
2023-04-05T00:03:42.841Z,49.29
2023-04-05T00:06:13.477Z,48.94
2023-04-05T00:08:42.039Z,49.40
2023-04-05T00:11:10.895Z,50.12
2023-04-05T00:13:38.973Z,50.36
2023-04-05T00:16:07.623Z,50.84
2023-04-05T00:18:38.817Z,51.36
2023-04-05T00:21:07.174Z,51.85
2023-04-05T00:23:38.828Z,52.30
2023-04-05T00:26:07.729Z,52.83
2023-04-05T00:28:36.297Z,53.46
2023-04-05T00:31:06.180Z,53.96
2023-04-05T00:33:34.386Z,54.64
2023-04-05T00:36:13.976Z,55.11
2023-04-05T00:38:43.338Z,55.67
2023-04-05T00:41:12.497Z,56.20
2023-04-05T00:43:41.333Z,56.69
2023-04-05T00:46:09.873Z,57.27
2023-04-05T00:48:39.213Z,57.58
2023-04-05T00:51:09.768Z,57.88
2023-04-05T00:53:38.146Z,58.28
2023-04-05T00:56:06.797Z,58.52
2023-04-05T00:58:34.898Z,58.74
2023-04-05T01:01:14.203Z,58.99
2023-04-05T01:03:47.226Z,59.25
2023-04-05T01:06:31.485Z,59.59
2023-04-05T01:09:08.719Z,59.84
2023-04-05T01:11:39.607Z,60.03
2023-04-05T01:14:07.634Z,60.17
2023-04-05T01:16:35.850Z,60.31
2023-04-05T01:19:04.493Z,60.68
2023-04-05T01:21:38.242Z,60.97
2023-04-05T01:24:41.016Z,61.25
2023-04-05T01:27:16.619Z,61.20
2023-04-05T01:29:51.665Z,61.46
2023-04-05T01:32:39.841Z,61.68
2023-04-05T01:35:23.474Z,61.91
2023-04-05T01:37:59.799Z,62.07
2023-04-05T01:40:28.391Z,62.02
2023-04-05T01:42:56.452Z,63.55
2023-04-05T01:45:24.562Z,70.99
2023-04-05T01:47:52.605Z,73.21
2023-04-05T01:50:21.173Z,71.62
2023-04-05T01:52:49.891Z,70.44
2023-04-05T01:55:17.936Z,67.66
2023-04-05T01:57:46.111Z,64.82
2023-04-05T02:00:14.190Z,62.68
2023-04-05T02:02:42.406Z,57.35
2023-04-05T02:05:10.635Z,50.33
2023-04-05T02:07:38.927Z,48.16
2023-04-05T02:10:08.110Z,48.19
2023-04-05T02:12:36.407Z,48.84
2023-04-05T02:15:05.062Z,49.46
2023-04-05T02:17:39.417Z,50.12
2023-04-05T02:20:08.976Z,50.80
2023-04-05T02:22:40.255Z,51.58
2023-04-05T02:25:09.436Z,52.29
2023-04-05T02:27:39.866Z,52.98
2023-04-05T02:30:08.863Z,53.65
2023-04-05T02:32:37.074Z,54.45
2023-04-05T02:35:05.759Z,55.03
2023-04-05T02:37:33.791Z,55.72
2023-04-05T02:40:05.943Z,56.38
2023-04-05T02:42:33.968Z,56.90
2023-04-05T02:45:02.511Z,57.42
2023-04-05T02:47:30.804Z,57.85
2023-04-05T02:50:00.641Z,58.36
2023-04-05T02:52:32.657Z,58.75
2023-04-05T02:55:00.822Z,59.37
2023-04-05T02:57:31.246Z,59.69
2023-04-05T03:00:05.762Z,60.08
2023-04-05T03:02:33.953Z,60.45
2023-04-05T03:05:02.940Z,60.68
2023-04-05T03:07:33.590Z,61.07
2023-04-05T03:10:03.584Z,61.38
2023-04-05T03:12:32.368Z,61.69
2023-04-05T03:15:00.764Z,62.01
2023-04-05T03:17:30.181Z,64.21
2023-04-05T03:20:02.536Z,72.20
2023-04-05T03:22:31.023Z,73.31
2023-04-05T03:24:59.179Z,71.77
2023-04-05T03:27:29.445Z,69.59
2023-04-05T03:30:07.866Z,66.57
2023-04-05T03:32:39.384Z,63.63
2023-04-05T03:35:19.403Z,57.33
2023-04-05T03:37:48.204Z,49.80
2023-04-05T03:40:16.490Z,48.28
2023-04-05T03:42:45.923Z,48.35
2023-04-05T03:45:14.619Z,48.92
2023-04-05T03:47:43.109Z,49.58
2023-04-05T03:50:11.583Z,50.31
2023-04-05T03:52:39.810Z,51.17
2023-04-05T03:55:08.486Z,51.90
2023-04-05T03:57:39.079Z,52.50
2023-04-05T04:00:18.969Z,53.17
2023-04-05T04:02:56.455Z,54.08
2023-04-05T04:05:24.752Z,54.86
2023-04-05T04:07:55.082Z,55.67
2023-04-05T04:10:24.254Z,56.27
2023-04-05T04:12:55.393Z,56.85
2023-04-05T04:15:28.380Z,57.40
2023-04-05T04:18:18.469Z,57.79
2023-04-05T04:21:07.236Z,58.31
2023-04-05T04:23:56.004Z,58.82
2023-04-05T04:26:44.222Z,59.27
2023-04-05T04:29:17.548Z,59.83
2023-04-05T04:32:07.121Z,60.21
2023-04-05T04:34:56.054Z,60.63
2023-04-05T04:38:03.686Z,61.01
2023-04-05T04:41:07.505Z,61.20
2023-04-05T04:43:58.777Z,61.52
2023-04-05T04:46:42.965Z,61.92
2023-04-05T04:49:30.554Z,66.15
2023-04-05T04:51:59.765Z,73.31
2023-04-05T04:54:28.946Z,72.84
2023-04-05T04:56:57.646Z,70.04
2023-04-05T04:59:26.013Z,66.23
2023-04-05T05:01:54.085Z,63.15
2023-04-05T05:04:23.131Z,56.02
2023-04-05T05:06:53.964Z,49.11
2023-04-05T05:09:21.990Z,47.81
2023-04-05T05:11:54.048Z,48.08
2023-04-05T05:14:22.056Z,48.83
2023-04-05T05:16:50.003Z,49.69
2023-04-05T05:19:19.599Z,50.39
2023-04-05T05:21:52.936Z,51.14
2023-04-05T05:24:21.078Z,52.05
2023-04-05T05:26:49.141Z,52.77
2023-04-05T05:29:19.945Z,53.28
2023-04-05T05:31:48.078Z,54.02
2023-04-05T05:34:17.648Z,54.58
2023-04-05T05:36:53.705Z,55.04
2023-04-05T05:39:22.082Z,55.62
2023-04-05T05:41:50.152Z,56.12
2023-04-05T05:44:18.171Z,56.57
2023-04-05T05:46:46.320Z,56.88
2023-04-05T05:49:14.474Z,57.35
2023-04-05T05:51:42.636Z,57.90
2023-04-05T05:54:10.925Z,58.39
2023-04-05T05:56:38.999Z,58.61
2023-04-05T05:59:07.435Z,58.77
2023-04-05T06:01:38.561Z,59.13
2023-04-05T06:04:07.034Z,59.18
2023-04-05T06:06:37.342Z,59.52
2023-04-05T06:09:06.116Z,59.60
2023-04-05T06:11:34.326Z,59.75
2023-04-05T06:14:05.014Z,59.98
2023-04-05T06:16:33.162Z,59.95
2023-04-05T06:19:01.878Z,60.10
2023-04-05T06:21:29.885Z,60.30
2023-04-05T06:23:57.907Z,60.41
2023-04-05T06:26:27.349Z,60.46
2023-04-05T06:28:55.925Z,60.56
2023-04-05T06:31:31.171Z,60.42
2023-04-05T06:33:59.511Z,60.13
2023-04-05T06:36:27.830Z,60.29
2023-04-05T06:38:56.058Z,60.30
2023-04-05T06:41:24.134Z,60.32
2023-04-05T06:43:52.100Z,60.20
2023-04-05T06:46:20.179Z,60.27
2023-04-05T06:48:50.114Z,60.36
2023-04-05T06:51:18.721Z,60.26
2023-04-05T06:53:46.843Z,60.20
2023-04-05T06:56:14.915Z,60.15
2023-04-05T06:58:43.115Z,60.10
2023-04-05T07:01:11.588Z,59.88
2023-04-05T07:03:39.637Z,59.65
2023-04-05T07:06:09.915Z,59.34
2023-04-05T07:08:38.031Z,59.29
2023-04-05T07:11:06.146Z,59.09
2023-04-05T07:13:34.181Z,58.98
2023-04-05T07:16:03.592Z,58.72
2023-04-05T07:18:31.854Z,58.23
2023-04-05T07:21:00.462Z,58.22
2023-04-05T07:23:29.016Z,57.04
2023-04-05T07:26:08.319Z,56.99
2023-04-05T07:28:36.738Z,56.20
2023-04-05T07:31:06.964Z,56.66
2023-04-05T07:33:35.032Z,56.44
2023-04-05T07:36:03.723Z,56.46
2023-04-05T07:38:31.790Z,55.74
2023-04-05T07:40:59.654Z,56.00
2023-04-05T07:43:27.624Z,56.09
2023-04-05T07:53:30.956Z,55.88
2023-04-05T07:55:59.459Z,56.24
2023-04-05T07:58:30.783Z,55.40
2023-04-05T08:01:03.108Z,55.26
2023-04-05T08:03:32.569Z,54.61
2023-04-05T08:06:11.198Z,54.36
2023-04-05T08:08:40.602Z,54.36
2023-04-05T08:11:08.663Z,53.03
2023-04-05T08:13:38.874Z,53.46
2023-04-05T08:16:08.234Z,54.14
2023-04-05T08:18:36.447Z,53.84
2023-04-05T08:21:04.620Z,52.25
2023-04-05T08:23:32.825Z,50.80
2023-04-05T08:26:00.871Z,51.77
2023-04-05T08:28:29.038Z,51.19
2023-04-05T08:30:57.988Z,52.00
2023-04-05T08:33:26.610Z,50.24
2023-04-05T08:35:54.744Z,49.63
2023-04-05T08:38:23.412Z,50.91
2023-04-05T08:40:51.442Z,51.34
2023-04-05T08:43:26.168Z,50.94
2023-04-05T08:45:57.053Z,51.77
2023-04-05T08:48:26.028Z,49.22
2023-04-05T08:50:54.803Z,50.38
2023-04-05T08:53:23.272Z,49.33
2023-04-05T08:55:55.654Z,48.97
2023-04-05T08:58:25.550Z,49.95
2023-04-05T09:00:55.877Z,50.29
2023-04-05T09:03:27.258Z,50.58
2023-04-05T09:05:58.581Z,50.01
2023-04-05T09:08:26.596Z,49.76
2023-04-05T09:10:54.549Z,48.32
2023-04-05T09:13:22.498Z,48.43
2023-04-05T09:15:50.889Z,47.29
2023-04-05T09:18:26.108Z,48.16
2023-04-05T09:21:05.957Z,47.38
2023-04-05T09:23:38.027Z,46.93
2023-04-05T09:26:24.012Z,45.67
2023-04-05T09:28:58.629Z,42.71
2023-04-05T09:31:32.013Z,44.41
2023-04-05T09:34:02.916Z,45.57
2023-04-05T09:36:34.716Z,45.37
2023-04-05T09:39:10.623Z,44.47
2023-04-05T09:41:39.570Z,43.94
2023-04-05T09:44:07.581Z,42.08
2023-04-05T09:46:39.982Z,41.87
2023-04-05T09:49:10.342Z,44.30
2023-04-05T09:51:39.536Z,43.33
2023-04-05T09:54:11.597Z,42.54
2023-04-05T09:56:41.629Z,44.00
2023-04-05T09:59:12.118Z,42.78
2023-04-05T10:01:44.872Z,43.44
2023-04-05T10:04:13.052Z,42.23
2023-04-05T10:06:42.980Z,42.93
2023-04-05T10:09:15.373Z,41.53
2023-04-05T10:11:46.011Z,41.97
2023-04-05T10:14:15.001Z,42.93
2023-04-05T10:16:48.502Z,44.02
2023-04-05T10:19:34.183Z,43.52
2023-04-05T10:22:03.311Z,43.92
2023-04-05T10:24:37.440Z,44.33
2023-04-05T10:27:12.312Z,43.92
2023-04-05T10:30:09.229Z,43.61
2023-04-05T10:33:07.578Z,42.76
2023-04-05T10:35:59.009Z,43.05
2023-04-05T10:38:29.446Z,41.37
2023-04-05T10:41:10.822Z,42.56
2023-04-05T10:43:41.494Z,43.12
2023-04-05T10:46:11.705Z,43.84
2023-04-05T10:49:08.269Z,43.82
2023-04-05T10:51:37.274Z,43.71
2023-04-05T10:54:08.732Z,44.19
2023-04-05T10:56:37.975Z,44.07
2023-04-05T10:59:07.509Z,44.40
2023-04-05T11:01:36.785Z,44.43
2023-04-05T11:04:15.301Z,43.83
2023-04-05T11:06:47.966Z,44.62
2023-04-05T11:09:21.131Z,44.05
2023-04-05T11:11:51.777Z,44.04
2023-04-05T11:14:26.837Z,44.10
2023-04-05T11:17:00.113Z,43.38
2023-04-05T11:19:43.793Z,44.21
2023-04-05T11:22:16.371Z,43.26
2023-04-05T11:24:57.039Z,43.45
2023-04-05T11:27:30.731Z,42.80
2023-04-05T11:30:00.528Z,43.56
2023-04-05T11:32:45.899Z,43.17
2023-04-05T11:35:15.438Z,42.92
2023-04-05T11:38:01.675Z,43.01
2023-04-05T11:40:33.435Z,41.48
2023-04-05T11:43:10.346Z,40.45
2023-04-05T11:45:41.013Z,41.22
2023-04-05T11:48:13.783Z,40.35
2023-04-05T11:50:42.734Z,39.71
2023-04-05T11:53:18.409Z,40.44
2023-04-05T11:55:51.261Z,40.59
2023-04-05T11:58:21.831Z,41.89
2023-04-05T12:01:01.940Z,41.81
2023-04-05T12:03:31.003Z,42.46
2023-04-05T12:06:02.158Z,42.56
2023-04-05T12:08:50.262Z,42.75
2023-04-05T12:11:27.311Z,42.62
2023-04-05T12:14:02.494Z,42.75
2023-04-05T12:16:30.588Z,43.17
2023-04-05T12:19:00.861Z,43.61
2023-04-05T12:21:29.387Z,43.12
2023-04-05T12:23:58.486Z,43.52
2023-04-05T12:26:26.934Z,43.43
2023-04-05T12:28:57.599Z,42.94
2023-04-05T12:31:42.688Z,42.78
2023-04-05T12:34:12.652Z,42.85
2023-04-05T12:36:45.953Z,43.39
2023-04-05T12:39:17.418Z,43.86
2023-04-05T12:41:45.672Z,43.67
2023-04-05T12:44:28.302Z,43.44
2023-04-05T12:47:02.856Z,43.32
2023-04-05T12:49:37.431Z,42.13
2023-04-05T12:52:05.772Z,42.12
2023-04-05T12:54:34.200Z,42.00
2023-04-05T12:57:08.882Z,42.33
2023-04-05T12:59:36.927Z,42.01
2023-04-05T13:02:04.864Z,42.74
2023-04-05T13:04:32.785Z,42.13
2023-04-05T13:07:00.998Z,42.87
2023-04-05T13:09:28.854Z,42.57
2023-04-05T13:11:57.591Z,40.40
2023-04-05T13:14:25.724Z,42.61
2023-04-05T13:16:54.004Z,41.48
2023-04-05T13:19:22.284Z,41.94
2023-04-05T13:21:50.481Z,42.29
2023-04-05T13:24:18.417Z,41.68
2023-04-05T13:26:47.164Z,42.20
2023-04-05T13:29:15.173Z,42.24
2023-04-05T13:31:43.250Z,42.21
2023-04-05T13:34:11.520Z,42.24
2023-04-05T13:36:39.401Z,42.08
2023-04-05T13:39:07.458Z,42.28
2023-04-05T13:41:35.461Z,41.76
2023-04-05T13:44:05.156Z,41.98
2023-04-05T13:46:35.679Z,41.74
2023-04-05T13:49:03.784Z,38.36
2023-04-05T13:51:34.578Z,38.85
2023-04-05T13:54:03.182Z,38.70
2023-04-05T13:56:31.136Z,39.26
2023-04-05T13:58:59.168Z,40.69
2023-04-05T14:01:27.363Z,40.35
2023-04-05T14:03:56.123Z,39.12
2023-04-05T14:06:24.511Z,38.39
2023-04-05T14:08:55.397Z,38.35
2023-04-05T14:11:23.742Z,39.35
2023-04-05T14:13:51.966Z,40.20
2023-04-05T14:16:20.047Z,39.88
2023-04-05T14:18:48.185Z,39.19
2023-04-05T14:21:16.337Z,40.46
2023-04-05T14:23:44.613Z,40.22
2023-04-05T14:26:12.996Z,40.19
2023-04-05T14:28:40.959Z,41.01
2023-04-05T14:31:09.438Z,40.44
2023-04-05T14:33:37.516Z,40.74
2023-04-05T14:36:05.635Z,41.06
2023-04-05T14:38:33.657Z,40.40
2023-04-05T14:41:02.131Z,40.62
2023-04-05T14:43:30.830Z,40.67
2023-04-05T14:45:58.757Z,41.29
2023-04-05T14:48:28.367Z,41.46
2023-04-05T14:50:56.475Z,41.70
2023-04-05T14:53:25.154Z,41.79
2023-04-05T14:55:53.282Z,41.82
2023-04-05T14:58:21.398Z,42.02
2023-04-05T15:00:50.415Z,42.07
2023-04-05T15:03:19.884Z,42.08
2023-04-05T15:05:48.649Z,42.03
2023-04-05T15:08:16.651Z,42.16
2023-04-05T15:10:45.781Z,42.12
2023-04-05T15:13:13.884Z,41.77
2023-04-05T15:15:41.996Z,42.01
2023-04-05T15:18:10.173Z,41.09
2023-04-05T15:20:39.357Z,40.92
2023-04-05T15:23:07.338Z,41.22
2023-04-05T15:25:35.248Z,41.25
2023-04-05T15:28:06.738Z,41.02
2023-04-05T15:30:36.375Z,41.50
2023-04-05T15:33:04.424Z,41.68
2023-04-05T15:35:35.148Z,41.12
2023-04-05T15:38:03.674Z,41.67
2023-04-05T15:40:31.814Z,41.98
2023-04-05T15:42:59.949Z,42.14
2023-04-05T15:45:28.630Z,42.09
2023-04-05T15:47:56.708Z,42.28
2023-04-05T15:50:25.067Z,42.35
2023-04-05T15:52:54.396Z,42.74
2023-04-05T15:55:22.392Z,42.65
2023-04-05T15:57:54.698Z,42.88
2023-04-05T16:00:23.059Z,42.56
2023-04-05T16:02:55.325Z,42.63
2023-04-05T16:05:23.990Z,42.75
2023-04-05T16:07:52.454Z,42.98
2023-04-05T16:10:20.978Z,43.20
2023-04-05T16:12:49.431Z,42.96
2023-04-05T16:15:17.722Z,42.99
2023-04-05T16:17:45.943Z,43.09
2023-04-05T16:20:13.983Z,43.35
2023-04-05T16:22:42.237Z,43.39
2023-04-05T16:25:10.243Z,43.60
2023-04-05T16:27:38.591Z,43.50
2023-04-05T16:30:07.759Z,43.74
2023-04-05T16:32:36.053Z,43.86
2023-04-05T16:35:04.631Z,44.06
2023-04-05T16:37:32.503Z,44.04
2023-04-05T16:40:00.980Z,44.22
2023-04-05T16:42:29.814Z,44.41
2023-04-05T16:44:57.845Z,44.57
2023-04-05T16:47:26.339Z,44.46
2023-04-05T16:49:54.381Z,44.88
2023-04-05T16:52:22.599Z,45.11
2023-04-05T16:54:50.744Z,45.25
2023-04-05T16:57:19.219Z,45.49
2023-04-05T16:59:47.642Z,45.34
2023-04-05T17:02:15.877Z,45.49
2023-04-05T17:04:45.377Z,45.77
2023-04-05T17:07:13.292Z,46.01
2023-04-05T17:09:41.518Z,46.17
2023-04-05T17:12:11.939Z,46.26
2023-04-05T17:14:40.600Z,46.49
2023-04-05T17:17:08.640Z,46.70
2023-04-05T17:19:37.199Z,46.73
2023-04-05T17:22:05.354Z,46.77
2023-04-05T17:24:37.805Z,46.92
2023-04-05T17:27:06.007Z,47.00
2023-04-05T17:29:34.070Z,47.19
2023-04-05T17:32:02.348Z,47.37
2023-04-05T17:34:30.501Z,47.71
2023-04-05T17:36:58.653Z,47.71
2023-04-05T17:39:26.709Z,47.81
2023-04-05T17:41:56.845Z,47.94
2023-04-05T17:44:24.833Z,48.08
2023-04-05T17:47:01.682Z,48.23
2023-04-05T17:49:37.846Z,48.36
2023-04-05T17:52:09.967Z,48.53
2023-04-05T17:54:38.906Z,48.68
2023-04-05T17:57:12.895Z,48.82
2023-04-05T17:59:42.671Z,48.89
2023-04-05T18:02:11.368Z,49.02
2023-04-05T18:04:41.151Z,49.12
2023-04-05T18:07:09.343Z,49.29
2023-04-05T18:09:38.644Z,49.50
2023-04-05T18:12:06.857Z,49.49
2023-04-05T18:14:37.188Z,49.60
2023-04-05T18:17:07.587Z,49.69
2023-04-05T18:19:35.785Z,50.09
2023-04-05T18:22:04.122Z,50.00
2023-04-05T18:24:32.189Z,50.26
2023-04-05T18:27:00.188Z,50.55
2023-04-05T18:29:30.854Z,50.57
2023-04-05T18:31:59.654Z,50.78
2023-04-05T18:34:27.854Z,51.00
2023-04-05T18:36:55.892Z,51.18
2023-04-05T18:39:26.272Z,51.23
2023-04-05T18:41:55.571Z,51.36
2023-04-05T18:44:23.594Z,51.38
2023-04-05T18:46:51.643Z,51.51
2023-04-05T18:49:21.281Z,51.62
2023-04-05T18:51:49.303Z,51.85
2023-04-05T18:54:18.528Z,51.98
2023-04-05T18:56:46.862Z,51.96
2023-04-05T18:59:16.344Z,51.92
2023-04-05T19:01:44.592Z,52.07
2023-04-05T19:04:12.574Z,52.14
2023-04-05T19:06:41.451Z,52.19
2023-04-05T19:09:10.211Z,52.12
2023-04-05T19:11:38.340Z,52.02
2023-04-05T19:14:06.269Z,52.11
2023-04-05T19:16:34.249Z,52.25
2023-04-05T19:19:03.754Z,52.49
2023-04-05T19:21:32.333Z,52.54
2023-04-05T19:24:00.323Z,52.47
2023-04-05T19:26:28.249Z,52.56
2023-04-05T19:28:57.346Z,52.58
2023-04-05T19:31:26.424Z,52.65
2023-04-05T19:33:54.499Z,52.62
2023-04-05T19:36:22.398Z,52.61
2023-04-05T19:38:51.894Z,52.69
2023-04-05T19:41:20.039Z,52.74
2023-04-05T19:43:48.110Z,52.84
2023-04-05T19:46:17.354Z,52.86
2023-04-05T19:48:46.846Z,52.93
2023-04-05T19:51:18.021Z,52.92
2023-04-05T19:53:49.743Z,53.01
2023-04-05T19:56:23.740Z,53.18
2023-04-05T19:59:33.988Z,53.34
2023-04-05T20:02:10.103Z,53.27
2023-04-05T20:04:39.265Z,53.44
2023-04-05T20:07:08.380Z,53.35
2023-04-05T20:09:37.856Z,53.44
2023-04-05T20:16:40.730Z,53.28
2023-04-05T20:19:11.520Z,53.45
2023-04-05T20:21:40.347Z,53.84
2023-04-05T20:24:10.166Z,53.99
2023-04-05T20:26:38.169Z,54.02
2023-04-05T20:38:15.967Z,53.44
2023-04-05T20:40:43.833Z,53.54
2023-04-05T20:47:46.416Z,53.34
2023-04-05T20:50:14.362Z,53.52
2023-04-05T20:52:42.331Z,53.70
2023-04-05T20:55:10.349Z,53.63
2023-04-05T20:57:38.617Z,53.33
2023-04-05T21:00:07.548Z,53.39
2023-04-05T21:02:35.653Z,53.12
2023-04-05T21:05:04.131Z,53.12
2023-04-05T21:07:34.345Z,53.12
2023-04-05T21:14:34.233Z,52.87
2023-04-05T21:17:03.366Z,52.65
2023-04-05T21:19:31.277Z,52.77
2023-04-05T21:21:59.170Z,52.66
2023-04-05T21:24:27.013Z,52.85
2023-04-05T21:26:55.138Z,52.59
2023-04-05T21:38:32.651Z,52.49
2023-04-05T21:45:51.130Z,52.65
2023-04-05T21:48:19.064Z,52.97
2023-04-05T21:50:46.991Z,53.06
2023-04-05T21:53:15.367Z,53.41
2023-04-05T21:55:43.258Z,53.85
2023-04-05T22:07:22.833Z,54.01
2023-04-05T22:19:03.601Z,54.22
2023-04-05T22:21:31.531Z,54.55
2023-04-05T22:23:59.444Z,54.98
2023-04-05T22:26:27.692Z,55.20
2023-04-05T22:28:55.753Z,55.12
2023-04-05T22:31:23.766Z,55.28
2023-04-05T22:33:51.611Z,55.28
2023-04-05T22:36:19.507Z,55.29
2023-04-05T22:38:47.417Z,55.35
2023-04-05T22:41:15.290Z,55.59
2023-04-05T22:43:43.200Z,55.62
2023-04-05T22:46:11.147Z,55.68
2023-04-05T22:48:39.017Z,55.89
2023-04-05T22:51:08.403Z,55.90
2023-04-05T22:53:36.270Z,55.89
2023-04-05T22:56:04.840Z,55.87
2023-04-05T22:58:32.916Z,55.99
2023-04-05T23:01:02.523Z,56.67
2023-04-05T23:03:30.760Z,56.89
2023-04-05T23:05:58.603Z,56.76
2023-04-05T23:08:26.467Z,56.94
2023-04-05T23:10:54.598Z,56.85
2023-04-05T23:13:22.463Z,56.91
2023-04-05T23:15:50.510Z,57.09
2023-04-05T23:18:22.328Z,57.09
2023-04-05T23:20:50.499Z,56.98
2023-04-05T23:23:18.823Z,56.07
2023-04-05T23:25:46.736Z,54.91
2023-04-05T23:28:14.753Z,55.64
2023-04-05T23:30:42.732Z,55.84
2023-04-05T23:33:13.426Z,55.24
2023-04-05T23:35:41.848Z,54.90
2023-04-05T23:38:09.827Z,54.87
2023-04-05T23:40:38.255Z,54.28
2023-04-05T23:43:06.459Z,54.15
2023-04-05T23:45:34.374Z,54.35
2023-04-05T23:48:02.653Z,54.49
2023-04-05T23:50:30.886Z,54.47
2023-04-05T23:53:00.289Z,54.06
2023-04-05T23:55:29.255Z,53.90
2023-04-05T23:58:00.099Z,54.22
